Time;durP1;ratioP1;P1;durP2;ratioP2;P2;SDS_P1;SDS_P2;PMS_P1;PMS_P2;Temp;Humidity;BMP_temperature;BMP_pressure;BME280_temperature;BME280_humidity;BME280_pressure;Samples;Min_cycle;Max_cycle;Signal;HPM_P1;HPM_P2
2023/06/30 00:00:26;;;;;;;9.68;5.90;;;15.80;99.90;;;;;;4919070;29;20146;-83
2023/06/30 00:02:51;;;;;;;11.23;6.05;;;15.80;99.90;;;;;;4903325;29;20043;-83
2023/06/30 00:05:18;;;;;;;10.68;6.10;;;15.80;99.90;;;;;;4903155;29;20039;-82
2023/06/30 00:07:45;;;;;;;10.60;5.68;;;15.80;99.90;;;;;;4903491;29;20052;-83
2023/06/30 00:10:11;;;;;;;10.60;5.43;;;15.80;99.90;;;;;;4902723;29;20075;-82
2023/06/30 00:12:37;;;;;;;9.23;5.80;;;15.70;99.90;;;;;;4902582;29;20051;-83
2023/06/30 00:15:03;;;;;;;12.32;6.32;;;15.70;99.90;;;;;;4918638;29;20039;-83
2023/06/30 00:17:28;;;;;;;14.85;5.97;;;15.70;99.90;;;;;;4903104;29;20051;-83
2023/06/30 00:19:57;;;;;;;11.45;5.60;;;15.60;99.90;;;;;;4903130;29;20031;-82
2023/06/30 00:22:23;;;;;;;12.52;6.03;;;15.60;99.90;;;;;;4903469;29;20043;-83
2023/06/30 00:24:55;;;;;;;10.88;6.10;;;15.60;99.90;;;;;;4919171;29;20051;-82
2023/06/30 00:27:22;;;;;;;11.43;5.78;;;15.60;99.90;;;;;;4918194;29;20118;-83
2023/06/30 00:29:48;;;;;;;10.85;5.50;;;15.50;99.90;;;;;;4903077;29;20134;-82
2023/06/30 00:32:14;;;;;;;13.73;6.13;;;15.50;99.90;;;;;;4919250;29;20183;-83
2023/06/30 00:34:40;;;;;;;11.35;6.00;;;15.50;99.90;;;;;;4903184;29;20044;-83
2023/06/30 00:37:06;;;;;;;12.65;5.75;;;15.40;99.90;;;;;;4903190;29;20047;-83
2023/06/30 00:39:32;;;;;;;7.32;5.63;;;15.40;99.90;;;;;;4903444;29;20051;-83
2023/06/30 00:41:57;;;;;;;17.33;5.95;;;15.40;99.90;;;;;;4919041;29;20634;-83
2023/06/30 00:44:23;;;;;;;10.38;6.05;;;15.30;99.90;;;;;;4903020;29;20058;-83
2023/06/30 00:46:49;;;;;;;8.73;6.25;;;15.20;99.90;;;;;;4887613;29;20082;-82
2023/06/30 00:49:14;;;;;;;9.48;5.50;;;15.20;99.90;;;;;;4918667;29;20043;-83
2023/06/30 00:51:40;;;;;;;12.10;6.38;;;15.20;99.90;;;;;;4902616;29;20213;-83
2023/06/30 00:54:06;;;;;;;8.48;5.88;;;15.00;99.90;;;;;;4918416;29;20482;-83
2023/06/30 00:56:32;;;;;;;8.27;5.93;;;15.00;99.90;;;;;;4918614;29;20051;-83
2023/06/30 00:58:58;;;;;;;10.57;5.18;;;15.00;99.90;;;;;;4918229;29;20536;-82
2023/06/30 01:01:47;;;;;;;14.13;6.55;;;15.00;99.90;;;;;;4887560;29;20047;-83
2023/06/30 01:04:24;;;;;;;12.80;5.60;;;14.90;99.90;;;;;;4918819;29;20043;-83
2023/06/30 01:07:00;;;;;;;10.85;5.50;;;14.80;99.90;;;;;;4902663;29;20040;-82
2023/06/30 01:09:30;;;;;;;9.82;5.95;;;14.90;99.90;;;;;;4918302;29;20046;-83
2023/06/30 01:11:56;;;;;;;11.10;5.40;;;14.80;99.90;;;;;;4918164;29;20043;-83
2023/06/30 01:14:23;;;;;;;6.82;4.95;;;14.80;99.90;;;;;;4902732;29;20086;-82
2023/06/30 01:16:50;;;;;;;8.02;5.10;;;14.80;99.90;;;;;;4902403;29;20043;-83
2023/06/30 01:19:26;;;;;;;8.07;4.85;;;14.80;99.90;;;;;;4918256;29;20501;-82
2023/06/30 01:22:02;;;;;;;10.27;5.43;;;14.70;99.90;;;;;;4902131;29;20067;-83
2023/06/30 01:24:34;;;;;;;9.77;5.32;;;14.70;99.90;;;;;;4899083;29;20040;-83
2023/06/30 01:27:01;;;;;;;8.23;5.03;;;14.70;99.90;;;;;;4908946;29;20044;-83
2023/06/30 01:29:27;;;;;;;10.38;5.35;;;14.60;99.90;;;;;;4892637;29;20446;-82
2023/06/30 01:31:53;;;;;;;8.93;5.10;;;14.60;99.90;;;;;;4883418;29;20040;-82
2023/06/30 01:34:18;;;;;;;9.52;4.97;;;14.60;99.90;;;;;;4914287;29;20386;-82
2023/06/30 01:36:44;;;;;;;8.85;5.47;;;14.60;99.90;;;;;;4920485;29;20496;-82
2023/06/30 01:39:10;;;;;;;9.05;5.30;;;14.60;99.90;;;;;;4909452;29;20095;-82
2023/06/30 01:41:36;;;;;;;10.40;5.03;;;14.50;99.90;;;;;;4885996;29;20046;-82
2023/06/30 01:44:02;;;;;;;12.77;5.22;;;14.50;99.90;;;;;;4886245;29;20450;-83
2023/06/30 01:46:28;;;;;;;6.78;4.55;;;14.50;99.90;;;;;;4901390;29;20044;-82
2023/06/30 01:48:55;;;;;;;11.30;4.90;;;14.50;99.90;;;;;;4901281;29;20075;-82
2023/06/30 01:51:21;;;;;;;8.55;4.63;;;14.40;99.90;;;;;;4904168;29;20123;-82
2023/06/30 01:53:46;;;;;;;11.90;4.75;;;14.40;99.90;;;;;;4916979;29;20669;-81
2023/06/30 01:56:12;;;;;;;10.00;5.00;;;14.40;99.90;;;;;;4901640;29;20055;-83
2023/06/30 01:58:38;;;;;;;7.32;4.45;;;14.30;99.90;;;;;;4905202;29;20493;-82
2023/06/30 02:01:04;;;;;;;8.68;5.13;;;14.30;99.90;;;;;;4903530;29;20126;-82
2023/06/30 02:03:29;;;;;;;9.57;4.90;;;14.30;99.90;;;;;;4901901;29;20031;-82
2023/06/30 02:05:55;;;;;;;8.82;4.70;;;14.30;99.90;;;;;;4886715;29;20090;-82
2023/06/30 02:08:21;;;;;;;9.35;4.55;;;14.30;99.90;;;;;;4901560;29;20054;-82
2023/06/30 02:10:47;;;;;;;10.43;4.70;;;14.30;99.90;;;;;;4917248;29;20043;-82
2023/06/30 02:13:12;;;;;;;10.02;4.95;;;14.20;99.90;;;;;;4917065;29;20516;-82
2023/06/30 02:15:38;;;;;;;9.45;4.55;;;14.20;99.90;;;;;;4901623;29;20047;-82
2023/06/30 02:18:04;;;;;;;8.80;4.35;;;14.20;99.90;;;;;;4901279;29;20146;-82
2023/06/30 02:20:29;;;;;;;8.13;4.80;;;14.10;99.90;;;;;;4917317;29;20040;-82
2023/06/30 02:22:55;;;;;;;8.38;4.55;;;14.10;99.90;;;;;;4917647;29;20048;-82
2023/06/30 02:25:21;;;;;;;10.50;4.60;;;14.10;99.90;;;;;;4917599;29;20458;-82
2023/06/30 02:27:47;;;;;;;11.48;4.90;;;14.00;99.90;;;;;;4901545;29;20048;-82
2023/06/30 02:30:13;;;;;;;10.13;4.65;;;14.00;99.90;;;;;;4901317;29;20051;-82
2023/06/30 02:32:40;;;;;;;9.70;4.43;;;14.00;99.90;;;;;;4901637;29;20408;-83
2023/06/30 02:35:06;;;;;;;10.70;4.85;;;14.00;99.90;;;;;;4901629;29;20055;-83
2023/06/30 02:37:33;;;;;;;9.02;4.47;;;14.00;99.90;;;;;;4902281;29;20046;-82
2023/06/30 02:39:58;;;;;;;8.80;4.22;;;14.00;99.90;;;;;;4901582;29;20040;-83
2023/06/30 02:42:24;;;;;;;10.15;4.68;;;13.90;99.90;;;;;;4885771;29;20508;-82
2023/06/30 02:44:50;;;;;;;11.32;4.97;;;13.90;99.90;;;;;;4867556;29;20036;-83
2023/06/30 02:47:15;;;;;;;8.77;4.50;;;13.90;99.90;;;;;;4898194;29;20088;-83
2023/06/30 02:49:41;;;;;;;9.57;4.43;;;13.80;99.90;;;;;;4898328;29;20405;-83
2023/06/30 02:52:08;;;;;;;9.27;5.20;;;13.80;99.90;;;;;;4919548;29;20055;-83
2023/06/30 02:54:34;;;;;;;6.95;4.28;;;13.80;99.90;;;;;;4905172;29;20048;-83
2023/06/30 02:56:59;;;;;;;9.45;4.70;;;13.70;99.90;;;;;;4908563;29;20556;-82
2023/06/30 02:59:25;;;;;;;5.50;3.97;;;13.70;99.90;;;;;;4906992;29;20036;-83
2023/06/30 03:01:51;;;;;;;9.68;4.40;;;13.70;99.90;;;;;;4904919;29;20044;-83
2023/06/30 03:04:17;;;;;;;8.82;4.35;;;13.60;99.90;;;;;;4920456;29;20102;-83
2023/06/30 03:06:42;;;;;;;11.50;4.97;;;13.60;99.90;;;;;;4904682;29;20441;-83
2023/06/30 03:09:08;;;;;;;8.68;4.20;;;13.60;99.90;;;;;;4904827;29;20040;-83
2023/06/30 03:11:34;;;;;;;12.68;4.80;;;13.60;99.90;;;;;;4904583;29;20087;-83
2023/06/30 03:14:00;;;;;;;8.95;4.95;;;13.60;99.90;;;;;;4904541;29;20106;-83
2023/06/30 03:16:25;;;;;;;9.35;4.82;;;13.60;99.90;;;;;;4904763;29;20138;-83
2023/06/30 03:18:51;;;;;;;10.82;4.68;;;13.50;99.90;;;;;;4919638;29;20054;-82
2023/06/30 03:21:17;;;;;;;11.68;4.82;;;13.60;99.90;;;;;;4919279;29;20040;-82
2023/06/30 03:23:42;;;;;;;8.43;4.10;;;13.50;99.90;;;;;;4903998;29;20048;-82
2023/06/30 03:26:08;;;;;;;8.55;5.20;;;13.40;99.90;;;;;;4903618;29;20043;-82
2023/06/30 03:28:35;;;;;;;7.70;4.78;;;13.40;99.90;;;;;;4903660;29;20040;-82
2023/06/30 03:31:01;;;;;;;9.65;4.63;;;13.40;99.90;;;;;;4919464;29;20094;-82
2023/06/30 03:33:27;;;;;;;10.70;4.35;;;13.40;99.90;;;;;;4903602;29;20071;-82
2023/06/30 03:35:52;;;;;;;10.40;4.93;;;13.30;99.90;;;;;;4904076;29;20107;-82
2023/06/30 03:38:18;;;;;;;10.40;4.85;;;13.30;99.90;;;;;;4919919;29;20047;-82
2023/06/30 03:40:44;;;;;;;9.10;4.82;;;13.30;99.90;;;;;;4888384;29;20493;-82
2023/06/30 03:43:10;;;;;;;8.80;4.03;;;13.30;99.90;;;;;;4888006;29;20039;-82
2023/06/30 03:45:38;;;;;;;9.75;4.32;;;13.30;99.90;;;;;;4907177;29;20501;-82
2023/06/30 03:48:03;;;;;;;9.38;4.80;;;13.20;99.90;;;;;;4901449;29;20058;-82
2023/06/30 03:50:29;;;;;;;10.05;4.65;;;13.20;99.90;;;;;;4901098;29;20418;-82
2023/06/30 03:52:55;;;;;;;8.23;4.65;;;13.10;99.90;;;;;;4916234;29;20098;-82
2023/06/30 03:55:20;;;;;;;8.02;4.93;;;13.10;99.90;;;;;;4916539;29;20051;-82
2023/06/30 03:57:46;;;;;;;7.45;4.65;;;13.10;99.90;;;;;;4916202;29;20391;-82
2023/06/30 04:00:12;;;;;;;7.22;5.05;;;13.10;99.90;;;;;;4900728;29;20039;-82
2023/06/30 04:02:39;;;;;;;10.20;4.30;;;13.00;99.90;;;;;;4924784;29;20389;-82
2023/06/30 04:05:05;;;;;;;7.85;4.20;;;13.10;99.90;;;;;;4935694;29;20086;-82
2023/06/30 04:07:30;;;;;;;7.30;4.57;;;13.10;99.90;;;;;;4917262;29;20083;-83
2023/06/30 04:09:56;;;;;;;8.80;4.40;;;13.10;99.90;;;;;;4885087;29;20075;-82
2023/06/30 04:12:22;;;;;;;10.23;4.78;;;13.00;99.90;;;;;;4900780;29;20052;-82
2023/06/30 04:14:48;;;;;;;9.07;4.85;;;13.00;99.90;;;;;;4915648;29;20127;-82
2023/06/30 04:17:14;;;;;;;10.25;4.53;;;13.00;99.90;;;;;;4900194;29;20059;-82
2023/06/30 04:19:39;;;;;;;10.38;4.47;;;13.00;99.90;;;;;;4920429;29;20036;-82
2023/06/30 04:22:05;;;;;;;7.75;4.28;;;13.00;99.90;;;;;;4884681;29;20048;-82
2023/06/30 04:24:31;;;;;;;8.60;4.45;;;13.00;99.90;;;;;;4884867;29;20103;-82
2023/06/30 04:26:57;;;;;;;8.07;4.20;;;13.00;99.90;;;;;;4900233;29;20044;-82
2023/06/30 04:29:23;;;;;;;8.32;4.28;;;13.00;99.90;;;;;;4900091;29;20172;-82
2023/06/30 04:31:49;;;;;;;10.05;4.30;;;13.00;99.90;;;;;;4916451;29;20082;-83
2023/06/30 04:34:14;;;;;;;7.88;4.43;;;13.00;99.90;;;;;;4915860;29;20511;-82
2023/06/30 04:36:40;;;;;;;7.88;4.75;;;13.10;99.90;;;;;;4915685;29;20486;-83
2023/06/30 04:39:06;;;;;;;8.48;4.50;;;13.20;99.90;;;;;;4899861;29;20115;-82
2023/06/30 04:41:31;;;;;;;9.38;4.65;;;13.20;99.90;;;;;;4891564;29;20502;-82
2023/06/30 04:43:59;;;;;;;7.45;4.55;;;13.20;99.90;;;;;;4915430;29;20603;-82
2023/06/30 04:46:25;;;;;;;8.68;4.60;;;13.20;99.90;;;;;;4899724;29;20106;-82
2023/06/30 04:48:51;;;;;;;8.55;4.60;;;13.30;99.90;;;;;;4924849;29;20066;-82
2023/06/30 04:51:18;;;;;;;7.47;4.35;;;13.50;99.90;;;;;;4904710;29;20151;-82
2023/06/30 04:53:44;;;;;;;9.40;4.40;;;13.60;99.90;;;;;;4900070;29;20134;-83
2023/06/30 04:56:10;;;;;;;10.38;4.18;;;13.60;99.90;;;;;;4915372;29;20527;-82
2023/06/30 04:58:36;;;;;;;7.20;4.30;;;13.60;99.90;;;;;;4899506;29;20123;-83
2023/06/30 05:01:04;;;;;;;7.97;4.13;;;13.60;99.90;;;;;;4899600;29;20040;-83
2023/06/30 05:03:30;;;;;;;6.80;4.10;;;13.60;99.90;;;;;;4899341;29;20043;-83
2023/06/30 05:05:57;;;;;;;7.53;4.15;;;13.60;99.90;;;;;;4899072;29;20048;-83
2023/06/30 05:08:24;;;;;;;10.20;4.60;;;13.60;99.90;;;;;;4898888;29;20055;-83
2023/06/30 05:10:49;;;;;;;6.25;4.25;;;13.60;99.90;;;;;;4898752;29;20126;-83
2023/06/30 05:13:15;;;;;;;10.00;4.43;;;13.60;99.90;;;;;;4913900;29;20123;-83
2023/06/30 05:15:41;;;;;;;9.02;4.05;;;13.70;99.90;;;;;;4914425;29;20060;-82
2023/06/30 05:18:07;;;;;;;10.48;4.68;;;13.70;99.90;;;;;;4898671;29;20040;-83
2023/06/30 05:20:33;;;;;;;7.25;4.22;;;13.70;99.90;;;;;;4913914;29;20553;-82
2023/06/30 05:23:00;;;;;;;7.53;3.55;;;13.80;99.90;;;;;;4914051;29;20397;-83
2023/06/30 05:25:26;;;;;;;7.63;3.80;;;13.80;99.90;;;;;;4898177;29;20091;-83
2023/06/30 05:27:51;;;;;;;8.93;3.83;;;13.90;99.90;;;;;;4898192;29;20480;-83
2023/06/30 05:30:18;;;;;;;7.25;3.80;;;14.00;99.90;;;;;;4898466;29;20087;-82
2023/06/30 05:32:44;;;;;;;7.25;3.70;;;14.00;99.90;;;;;;4914367;29;20048;-83
2023/06/30 05:35:10;;;;;;;8.40;3.88;;;14.00;99.90;;;;;;4914258;29;20054;-83
2023/06/30 05:37:36;;;;;;;7.15;3.42;;;14.10;99.90;;;;;;4915594;29;20040;-83
2023/06/30 05:40:03;;;;;;;6.80;3.63;;;14.20;99.90;;;;;;4898324;29;20561;-83
2023/06/30 05:42:28;;;;;;;8.48;3.88;;;14.20;99.90;;;;;;4898867;29;20048;-82
2023/06/30 05:44:54;;;;;;;8.43;3.88;;;14.30;99.90;;;;;;4914441;29;20383;-82
2023/06/30 05:47:20;;;;;;;7.65;4.00;;;14.40;99.90;;;;;;4883104;29;20040;-83
2023/06/30 05:49:46;;;;;;;9.95;4.05;;;14.50;99.90;;;;;;4899770;29;20075;-84
2023/06/30 05:52:12;;;;;;;8.48;3.42;;;14.60;99.90;;;;;;4911792;29;20115;-83
2023/06/30 05:54:37;;;;;;;10.50;3.65;;;14.70;99.90;;;;;;4914604;29;20414;-82
2023/06/30 05:57:04;;;;;;;6.45;3.40;;;14.80;99.90;;;;;;4914298;29;20553;-83
2023/06/30 05:59:30;;;;;;;6.68;3.83;;;14.90;99.90;;;;;;4898509;29;20051;-82
2023/06/30 06:01:56;;;;;;;10.05;3.85;;;15.00;99.90;;;;;;4914371;29;20047;-82
2023/06/30 06:04:22;;;;;;;6.57;3.15;;;15.10;99.90;;;;;;4914027;29;20040;-84
2023/06/30 06:06:48;;;;;;;10.18;3.25;;;15.20;99.90;;;;;;4914383;29;20047;-85
2023/06/30 06:09:13;;;;;;;5.68;3.20;;;15.30;99.90;;;;;;4898516;29;20055;-83
2023/06/30 06:11:39;;;;;;;7.78;3.40;;;15.50;99.90;;;;;;4898524;29;20048;-84
2023/06/30 06:14:05;;;;;;;8.88;3.28;;;15.60;99.90;;;;;;4882869;29;20051;-83
2023/06/30 06:16:30;;;;;;;7.25;3.00;;;15.70;99.90;;;;;;4898876;29;20047;-82
2023/06/30 06:18:56;;;;;;;12.65;3.90;;;15.90;99.90;;;;;;4914064;29;20494;-83
2023/06/30 06:21:26;;;;;;;6.97;3.75;;;16.00;99.90;;;;;;4914336;29;20142;-82
2023/06/30 06:23:52;;;;;;;7.70;3.20;;;16.10;99.90;;;;;;4917233;29;20043;-83
2023/06/30 06:26:18;;;;;;;7.95;3.05;;;16.20;99.90;;;;;;4906105;29;20119;-83
2023/06/30 06:28:44;;;;;;;6.93;2.95;;;16.30;99.90;;;;;;4870501;29;20059;-83
2023/06/30 06:31:09;;;;;;;7.35;2.92;;;16.50;99.90;;;;;;4901657;29;20066;-82
2023/06/30 06:33:35;;;;;;;7.22;2.88;;;16.50;99.90;;;;;;4902087;29;20050;-83
2023/06/30 06:36:01;;;;;;;7.15;2.80;;;16.70;99.90;;;;;;4901742;29;20059;-84
2023/06/30 06:38:27;;;;;;;7.63;2.83;;;16.80;99.90;;;;;;4901423;29;20044;-83
2023/06/30 06:40:53;;;;;;;6.80;2.75;;;17.00;99.90;;;;;;4916889;29;20048;-84
2023/06/30 06:43:18;;;;;;;6.88;2.63;;;17.10;99.90;;;;;;4910389;29;20075;-83
2023/06/30 06:45:45;;;;;;;6.32;2.63;;;17.20;99.90;;;;;;4921537;29;20123;-84
2023/06/30 06:48:28;;;;;;;6.35;2.40;;;17.20;99.90;;;;;;4901158;29;20569;-83
2023/06/30 06:50:55;;;;;;;5.88;2.60;;;17.30;99.90;;;;;;4885340;29;20071;-84
2023/06/30 06:53:25;;;;;;;6.10;3.03;;;17.40;99.90;;;;;;4900642;29;20048;-83
2023/06/30 06:55:53;;;;;;;6.85;2.45;;;17.60;99.90;;;;;;4913231;29;20044;-84
2023/06/30 06:58:19;;;;;;;5.63;2.17;;;17.90;99.90;;;;;;4885832;29;20060;-84
2023/06/30 07:00:47;;;;;;;3.65;2.00;;;17.80;99.90;;;;;;4917077;29;20453;-83
2023/06/30 07:03:13;;;;;;;6.38;2.22;;;17.90;99.90;;;;;;4901287;29;20119;-84
2023/06/30 07:05:40;;;;;;;5.65;2.30;;;17.90;99.90;;;;;;4901202;29;20135;-84
2023/06/30 07:08:09;;;;;;;8.63;2.58;;;17.80;99.90;;;;;;4885874;29;20048;-85
2023/06/30 07:10:35;;;;;;;4.35;2.00;;;17.90;99.90;;;;;;4916547;29;20051;-84
2023/06/30 07:13:01;;;;;;;3.30;1.73;;;18.00;99.90;;;;;;4900982;29;20040;-83
2023/06/30 07:15:27;;;;;;;4.53;1.77;;;18.10;99.90;;;;;;4901370;29;20051;-85
2023/06/30 07:17:53;;;;;;;4.80;1.90;;;17.90;99.90;;;;;;4885809;29;20048;-83
2023/06/30 07:20:19;;;;;;;5.43;2.15;;;17.80;99.90;;;;;;4917030;29;20108;-85
2023/06/30 07:22:44;;;;;;;5.32;1.73;;;17.60;99.90;;;;;;4901339;29;20107;-81
2023/06/30 07:25:10;;;;;;;3.28;1.60;;;17.70;99.90;;;;;;4917257;29;20036;-84
2023/06/30 07:27:37;;;;;;;5.93;1.90;;;17.80;99.90;;;;;;4885438;29;20044;-85
2023/06/30 07:30:03;;;;;;;5.18;1.90;;;17.80;99.90;;;;;;4901397;29;20110;-84
2023/06/30 07:32:31;;;;;;;3.45;1.77;;;17.90;99.90;;;;;;4885812;29;20052;-83
2023/06/30 07:34:56;;;;;;;7.03;2.00;;;17.90;99.90;;;;;;4916525;29;20051;-84
2023/06/30 07:37:22;;;;;;;3.75;1.70;;;18.00;99.90;;;;;;4900919;29;20054;-81
2023/06/30 07:39:48;;;;;;;3.83;2.00;;;18.10;99.90;;;;;;4901289;29;20099;-84
2023/06/30 07:42:14;;;;;;;5.90;2.10;;;18.30;99.90;;;;;;4900677;29;20079;-82
2023/06/30 07:44:40;;;;;;;4.22;1.95;;;18.20;99.90;;;;;;4915728;29;20044;-84
2023/06/30 07:47:06;;;;;;;6.82;2.05;;;18.00;99.90;;;;;;4900382;29;20135;-84
2023/06/30 07:49:31;;;;;;;4.32;2.03;;;18.10;99.90;;;;;;4916304;29;20131;-84
2023/06/30 07:51:57;;;;;;;4.20;1.80;;;18.30;99.90;;;;;;4882756;29;20379;-84
2023/06/30 07:54:23;;;;;;;4.03;1.85;;;18.60;99.90;;;;;;4900639;29;20043;-84
2023/06/30 07:56:49;;;;;;;4.28;1.70;;;18.60;99.90;;;;;;4900474;29;20047;-84
2023/06/30 07:59:15;;;;;;;3.30;1.73;;;18.50;99.90;;;;;;4915255;29;20078;-82
2023/06/30 08:01:40;;;;;;;6.15;1.80;;;18.50;99.90;;;;;;4916344;29;20047;-84
2023/06/30 08:04:06;;;;;;;5.30;1.75;;;18.70;99.90;;;;;;4900878;29;20123;-84
2023/06/30 08:06:32;;;;;;;8.48;1.92;;;18.90;99.90;;;;;;4884823;29;20051;-80
2023/06/30 08:08:58;;;;;;;4.45;1.70;;;19.00;99.90;;;;;;4900537;29;20115;-84
2023/06/30 08:11:25;;;;;;;5.82;1.73;;;19.10;99.90;;;;;;4884493;29;20046;-84
2023/06/30 08:13:51;;;;;;;4.70;1.60;;;19.00;99.90;;;;;;4900001;29;20398;-85
2023/06/30 08:16:17;;;;;;;5.30;1.65;;;19.00;99.90;;;;;;4900124;29;20127;-85
2023/06/30 08:18:43;;;;;;;4.57;1.67;;;18.90;99.90;;;;;;4899645;29;20136;-82
2023/06/30 08:21:08;;;;;;;4.78;1.80;;;18.90;99.90;;;;;;4865790;29;20383;-82
2023/06/30 08:23:34;;;;;;;3.45;1.60;;;18.90;99.90;;;;;;4893907;29;20044;-83
2023/06/30 08:26:00;;;;;;;6.68;1.70;;;19.10;99.90;;;;;;4914098;29;20047;-83
2023/06/30 08:28:26;;;;;;;2.85;1.50;;;19.20;99.90;;;;;;4899638;29;20051;-86
2023/06/30 08:30:51;;;;;;;4.03;1.70;;;19.30;99.90;;;;;;4883138;29;20044;-86
2023/06/30 08:33:17;;;;;;;3.33;1.50;;;19.60;99.90;;;;;;4883062;29;20509;-84
2023/06/30 08:35:43;;;;;;;4.80;1.40;;;19.40;99.90;;;;;;4898508;29;20383;-83
2023/06/30 08:38:09;;;;;;;4.55;1.83;;;19.40;99.90;;;;;;4898771;29;20216;-84
2023/06/30 08:40:35;;;;;;;5.18;2.10;;;19.20;99.90;;;;;;4883541;29;20040;-84
2023/06/30 08:43:09;;;;;;;6.13;1.85;;;18.90;99.90;;;;;;4914548;29;20055;-84
2023/06/30 08:45:35;;;;;;;2.20;1.55;;;18.60;99.90;;;;;;4900595;29;20076;-85
2023/06/30 08:48:06;;;;;;;3.13;1.58;;;18.40;99.90;;;;;;4884917;29;20103;-85
2023/06/30 08:50:36;;;;;;;4.38;1.73;;;18.20;99.90;;;;;;4900654;29;20471;-86
2023/06/30 08:53:03;;;;;;;4.55;1.67;;;18.30;99.90;;;;;;4902384;29;20390;-84
2023/06/30 08:55:29;;;;;;;3.67;1.50;;;18.60;99.90;;;;;;4918217;29;20138;-86
2023/06/30 08:57:56;;;;;;;6.57;1.55;;;18.80;99.90;;;;;;4886819;29;20080;-85
2023/06/30 09:00:23;;;;;;;3.58;1.77;;;19.10;99.90;;;;;;4902602;29;20126;-84
2023/06/30 09:02:50;;;;;;;3.05;1.48;;;19.20;99.90;;;;;;4902591;29;20035;-85
2023/06/30 09:05:16;;;;;;;2.13;1.30;;;19.50;99.90;;;;;;4902515;29;20048;-86
2023/06/30 09:07:57;;;;;;;2.17;1.10;;;19.60;99.90;;;;;;4887214;29;20054;-84
2023/06/30 09:10:27;;;;;;;2.78;1.25;;;19.60;99.90;;;;;;4902908;29;20401;-83
2023/06/30 09:12:59;;;;;;;3.78;1.48;;;19.70;99.90;;;;;;4902537;29;20048;-84
2023/06/30 09:15:25;;;;;;;;;;;19.90;99.90;;;;;;4888157;29;20404;-85
2023/06/30 09:17:52;;;;;;;4.88;1.42;;;19.60;99.90;;;;;;4918153;29;19969;-84
2023/06/30 09:20:20;;;;;;;4.40;1.40;;;19.60;99.90;;;;;;4902838;29;20040;-84
2023/06/30 09:22:46;;;;;;;2.83;1.45;;;19.70;99.90;;;;;;4918426;29;20644;-84
2023/06/30 09:25:27;;;;;;;5.75;1.23;;;20.00;99.90;;;;;;4918081;29;20118;-83
2023/06/30 09:27:55;;;;;;;3.85;1.50;;;20.40;99.90;;;;;;4918411;29;20106;-84
2023/06/30 09:30:38;;;;;;;3.03;1.70;;;20.60;99.90;;;;;;4910499;29;20699;-87
2023/06/30 09:33:05;;;;;;;5.93;1.70;;;20.50;99.90;;;;;;4917992;29;20126;-86
2023/06/30 09:35:41;;;;;;;2.70;1.60;;;20.50;99.90;;;;;;4917940;29;20052;-86
2023/06/30 09:38:15;;;;;;;3.58;1.55;;;20.60;99.90;;;;;;4902826;29;20044;-88
2023/06/30 09:40:48;;;;;;;3.08;1.60;;;20.60;99.90;;;;;;4902111;29;20152;-88
2023/06/30 09:43:19;;;;;;;3.47;1.38;;;20.70;99.90;;;;;;4886381;29;20498;-87
2023/06/30 09:45:47;;;;;;;4.85;1.63;;;20.50;99.90;;;;;;4902646;29;20453;-87
2023/06/30 09:48:13;;;;;;;3.92;1.98;;;20.60;99.90;;;;;;4902011;29;20103;-87
2023/06/30 09:50:43;;;;;;;2.85;1.40;;;20.50;99.90;;;;;;4902010;29;20052;-86
2023/06/30 09:53:09;;;;;;;2.20;1.42;;;20.50;99.90;;;;;;4914946;29;20063;-89
2023/06/30 09:55:53;;;;;;;1.98;1.20;;;20.50;99.90;;;;;;4898244;29;21594;-85
2023/06/30 09:58:20;;;;;;;3.83;1.25;;;20.70;99.90;;;;;;4929641;29;20075;-88
2023/06/30 10:00:47;;;;;;;3.17;1.40;;;20.90;99.90;;;;;;4915470;29;20047;-88
2023/06/30 10:03:19;;;;;;;3.65;1.40;;;21.00;99.90;;;;;;4919921;29;20112;-86
2023/06/30 10:05:47;;;;;;;2.08;1.20;;;21.10;99.90;;;;;;4888551;29;20040;-83
2023/06/30 10:08:14;;;;;;;3.38;1.08;;;21.30;99.90;;;;;;4936949;29;20032;-85
2023/06/30 10:10:41;;;;;;;1.98;1.15;;;21.50;99.90;;;;;;4917129;29;20055;-86
2023/06/30 10:13:07;;;;;;;3.08;1.20;;;21.40;99.90;;;;;;4886000;29;20469;-85
2023/06/30 10:15:34;;;;;;;2.45;1.38;;;21.00;99.90;;;;;;4901074;29;20047;-82
2023/06/30 10:18:02;;;;;;;2.40;1.20;;;20.70;99.90;;;;;;4900691;29;20087;-87
2023/06/30 10:20:29;;;;;;;3.30;1.20;;;20.40;99.90;;;;;;4914720;29;20043;-86
2023/06/30 10:22:56;;;;;;;3.15;1.17;;;20.30;99.90;;;;;;4916957;29;20048;-86
2023/06/30 10:25:25;;;;;;;1.20;1.02;;;20.60;99.90;;;;;;4916698;29;20043;-83
2023/06/30 10:27:51;;;;;;;3.97;1.45;;;20.80;99.90;;;;;;4901672;29;20442;-84
2023/06/30 10:30:17;;;;;;;2.80;1.20;;;20.80;99.90;;;;;;4917133;29;20040;-85
2023/06/30 10:32:43;;;;;;;3.08;1.30;;;20.80;99.90;;;;;;4932465;29;20684;-86
2023/06/30 10:35:10;;;;;;;1.63;1.10;;;20.70;99.90;;;;;;4885648;29;20054;-86
2023/06/30 10:37:36;;;;;;;3.15;1.20;;;20.60;99.90;;;;;;4901262;29;20513;-84
2023/06/30 10:40:23;;;;;;;3.42;1.25;;;20.40;99.90;;;;;;4901555;29;20036;-88
2023/06/30 10:42:52;;;;;;;2.78;1.30;;;20.20;99.90;;;;;;4909500;29;20047;-86
2023/06/30 10:45:22;;;;;;;3.90;1.40;;;20.00;99.90;;;;;;4917277;29;20032;-86
2023/06/30 10:47:51;;;;;;;4.18;1.42;;;20.00;99.90;;;;;;4939809;28;20050;-87
2023/06/30 10:50:17;;;;;;;2.88;1.20;;;20.00;99.90;;;;;;4883923;29;20059;-86
2023/06/30 10:52:53;;;;;;;4.57;1.40;;;20.20;99.90;;;;;;4885598;29;20048;-85
2023/06/30 10:55:21;;;;;;;3.05;1.50;;;20.50;99.90;;;;;;4912136;29;20047;-85
2023/06/30 10:57:51;;;;;;;5.13;1.85;;;20.70;99.90;;;;;;4885636;29;20036;-87
2023/06/30 11:00:18;;;;;;;2.55;1.48;;;20.80;99.90;;;;;;4896177;29;20036;-84
2023/06/30 11:02:49;;;;;;;3.42;1.48;;;21.20;99.90;;;;;;4916833;29;20040;-85
2023/06/30 11:05:19;;;;;;;3.88;1.30;;;21.40;99.90;;;;;;4901016;29;20039;-86
2023/06/30 11:07:49;;;;;;;2.15;1.23;;;21.60;85.50;;;;;;4916921;29;20379;-87
2023/06/30 11:10:27;;;;;;;1.48;1.20;;;21.70;81.50;;;;;;4901015;29;20035;-84
2023/06/30 11:12:57;;;;;;;2.10;1.27;;;21.80;87.30;;;;;;4887705;29;20575;-85
2023/06/30 11:15:29;;;;;;;3.30;1.35;;;21.70;87.80;;;;;;4920374;29;20039;-86
2023/06/30 11:17:54;;;;;;;;;;;21.80;80.30;;;;;;4905253;29;20046;-87
2023/06/30 11:20:27;;;;;;;2.38;1.08;;;21.70;75.50;;;;;;4920663;29;19919;-85
2023/06/30 11:23:04;;;;;;;2.65;1.20;;;21.80;87.20;;;;;;4920346;29;20051;-85
2023/06/30 11:25:34;;;;;;;4.00;1.48;;;22.10;73.60;;;;;;4904516;29;20187;-85
2023/06/30 11:28:01;;;;;;;3.03;1.05;;;22.30;75.90;;;;;;4919613;29;20091;-87
2023/06/30 11:30:31;;;;;;;1.90;1.10;;;22.50;73.40;;;;;;4888125;29;20046;-86
2023/06/30 11:33:00;;;;;;;3.63;1.30;;;22.70;74.90;;;;;;4903067;29;20397;-87
2023/06/30 11:35:26;;;;;;;3.67;1.55;;;23.00;72.30;;;;;;4903268;29;20072;-84
2023/06/30 11:37:53;;;;;;;3.22;1.20;;;23.10;72.70;;;;;;4918471;29;20048;-85
2023/06/30 11:40:21;;;;;;;5.07;1.83;;;23.30;72.30;;;;;;4887087;29;20508;-84
2023/06/30 11:42:47;;;;;;;8.02;1.90;;;23.30;72.70;;;;;;4887162;29;20046;-85
2023/06/30 11:45:19;;;;;;;2.97;1.42;;;23.40;71.60;;;;;;4887179;29;20040;-84
2023/06/30 11:47:48;;;;;;;3.67;1.60;;;23.40;70.50;;;;;;4902202;29;20130;-83
2023/06/30 11:50:17;;;;;;;3.42;1.40;;;23.40;71.70;;;;;;4903684;29;20064;-84
2023/06/30 11:52:43;;;;;;;3.75;1.67;;;23.30;70.50;;;;;;4909220;29;20126;-85
2023/06/30 11:55:10;;;;;;;3.38;1.38;;;23.20;72.70;;;;;;4922346;29;20513;-84
2023/06/30 11:57:38;;;;;;;3.28;1.60;;;22.90;74.10;;;;;;4927007;29;20413;-83
2023/06/30 12:00:17;;;;;;;9.60;2.00;;;22.70;79.60;;;;;;4939855;29;20032;-85
2023/06/30 12:02:47;;;;;;;3.13;1.50;;;22.40;79.00;;;;;;4936063;29;20046;-84
2023/06/30 12:05:21;;;;;;;7.07;1.83;;;22.20;83.50;;;;;;4905199;29;20051;-83
2023/06/30 12:07:49;;;;;;;3.45;1.63;;;22.00;85.10;;;;;;4903468;29;20445;-85
2023/06/30 12:10:15;;;;;;;6.53;1.90;;;21.90;85.60;;;;;;4903268;29;20083;-84
2023/06/30 12:12:41;;;;;;;2.35;1.38;;;22.20;87.00;;;;;;4869825;29;20052;-82
2023/06/30 12:15:12;;;;;;;4.28;1.60;;;22.40;76.90;;;;;;4919168;29;20048;-83
2023/06/30 12:17:39;;;;;;;3.22;1.30;;;22.70;72.10;;;;;;4923536;29;20103;-84
2023/06/30 12:20:07;;;;;;;1.83;1.33;;;22.70;70.00;;;;;;4887896;29;20075;-85
2023/06/30 12:22:36;;;;;;;2.55;1.33;;;22.80;69.80;;;;;;4918879;29;20039;-85
2023/06/30 12:25:05;;;;;;;3.70;1.60;;;23.00;71.00;;;;;;4902593;29;20044;-83
2023/06/30 12:27:31;;;;;;;4.88;1.63;;;23.00;69.90;;;;;;4902979;29;20047;-84
2023/06/30 12:29:57;;;;;;;5.25;1.70;;;23.00;68.20;;;;;;4887626;29;20053;-82
2023/06/30 12:32:30;;;;;;;2.45;1.63;;;22.80;68.10;;;;;;4903524;29;20403;-84
2023/06/30 12:35:04;;;;;;;6.72;1.80;;;22.70;69.20;;;;;;4903412;29;20133;-84
2023/06/30 12:37:30;;;;;;;2.40;1.75;;;22.40;71.40;;;;;;4904468;29;20497;-84
2023/06/30 12:40:01;;;;;;;3.00;1.60;;;22.20;73.10;;;;;;4903334;29;20043;-85
2023/06/30 12:42:30;;;;;;;2.90;1.60;;;22.00;72.60;;;;;;4887953;29;20039;-84
2023/06/30 12:44:56;;;;;;;4.53;2.05;;;22.00;73.40;;;;;;4916850;29;20559;-82